createdAt,value
2023-04-20T05:36:33.635Z,5.36
2023-04-20T05:39:41.180Z,5.43
2023-04-20T05:42:43.961Z,5.58
2023-04-20T05:45:46.754Z,5.75
2023-04-20T05:48:49.535Z,5.83
2023-04-20T05:51:53.648Z,5.91
2023-04-20T05:54:56.486Z,5.95
2023-04-20T05:58:01.798Z,5.98
2023-04-20T06:01:04.640Z,6.01
2023-04-20T06:04:07.550Z,5.96
2023-04-20T06:07:12.601Z,5.94
2023-04-20T06:24:55.329Z,5.65
2023-04-20T06:27:57.821Z,5.73
2023-04-20T06:31:00.343Z,5.79
2023-04-20T06:34:02.912Z,5.80
2023-04-20T06:44:43.209Z,6.06
2023-04-20T06:47:45.855Z,6.07
2023-04-20T06:50:49.051Z,6.18
2023-04-20T06:53:51.671Z,6.17
2023-04-20T06:56:54.222Z,6.26
2023-04-20T06:59:58.943Z,6.27
2023-04-20T07:03:02.869Z,6.41
2023-04-20T07:06:07.658Z,6.46
2023-04-20T07:09:11.295Z,6.56
2023-04-20T07:12:15.816Z,6.73
2023-04-20T07:15:19.823Z,6.80
2023-04-20T07:18:22.357Z,6.96
2023-04-20T07:21:24.896Z,7.08
2023-04-20T07:24:29.029Z,7.00
2023-04-20T07:27:33.588Z,7.07
2023-04-20T07:30:37.728Z,7.06
2023-04-20T07:33:40.594Z,7.14
2023-04-20T07:36:43.102Z,7.33
2023-04-20T07:39:45.600Z,7.57
2023-04-20T07:42:48.108Z,7.47
2023-04-20T07:45:52.523Z,7.52
2023-04-20T07:48:55.077Z,7.60
2023-04-20T07:52:09.261Z,7.67
2023-04-20T07:55:18.022Z,7.73
2023-04-20T07:58:21.613Z,7.97
2023-04-20T08:01:26.300Z,8.25
2023-04-20T08:04:29.256Z,8.39
2023-04-20T08:07:31.921Z,8.53
2023-04-20T08:10:35.160Z,8.67
2023-04-20T08:13:37.779Z,8.65
2023-04-20T08:16:41.672Z,8.82
2023-04-20T08:19:45.990Z,9.05
2023-04-20T08:22:49.343Z,9.53
2023-04-20T08:25:51.844Z,9.48
2023-04-20T08:28:54.327Z,9.39
2023-04-20T08:31:58.435Z,9.48
2023-04-20T08:35:01.046Z,9.28
2023-04-20T08:38:03.770Z,9.49
2023-04-20T08:41:06.632Z,9.71
2023-04-20T08:44:09.542Z,9.69
2023-04-20T08:47:14.017Z,9.43
2023-04-20T08:50:17.769Z,9.29
2023-04-20T08:53:20.642Z,9.46
2023-04-20T08:56:34.739Z,9.87
2023-04-20T08:59:38.082Z,9.93
2023-04-20T09:02:51.842Z,10.20
2023-04-20T09:05:54.430Z,10.15
2023-04-20T09:08:56.959Z,10.43
2023-04-20T09:12:03.856Z,10.92
2023-04-20T09:15:07.428Z,11.13
2023-04-20T09:18:15.754Z,11.13
2023-04-20T09:21:18.250Z,10.93
2023-04-20T09:24:22.189Z,10.75
2023-04-20T09:27:26.223Z,10.37
2023-04-20T09:30:39.034Z,10.50
2023-04-20T09:33:42.975Z,10.66
2023-04-20T09:36:47.388Z,10.73
2023-04-20T09:39:50.481Z,10.56
2023-04-20T09:42:54.539Z,10.14
2023-04-20T09:45:57.540Z,10.20
2023-04-20T09:49:02.586Z,10.53
2023-04-20T09:52:06.282Z,10.73
2023-04-20T09:55:11.580Z,10.96
2023-04-20T09:58:14.592Z,11.49
2023-04-20T10:01:17.217Z,12.20
2023-04-20T10:04:22.142Z,12.41
2023-04-20T10:07:27.335Z,12.74
2023-04-20T10:10:31.081Z,12.15
2023-04-20T10:13:35.203Z,12.18
2023-04-20T10:16:37.835Z,12.67
2023-04-20T10:19:43.435Z,13.20
2023-04-20T10:22:46.396Z,14.21
2023-04-20T10:25:59.728Z,14.89
2023-04-20T10:29:02.350Z,15.04
2023-04-20T10:32:05.203Z,15.44
2023-04-20T10:35:13.932Z,15.63
2023-04-20T10:38:17.123Z,15.43
2023-04-20T10:41:20.968Z,15.41
2023-04-20T10:44:23.553Z,14.50
2023-04-20T10:47:30.986Z,14.87
2023-04-20T10:50:35.106Z,15.78
2023-04-20T10:53:37.589Z,15.98
2023-04-20T10:56:41.849Z,16.17
2023-04-20T10:59:44.369Z,15.93
2023-04-20T11:02:49.176Z,15.40
2023-04-20T11:05:53.047Z,14.87
2023-04-20T11:08:55.711Z,14.86
2023-04-20T11:12:02.801Z,14.81
2023-04-20T11:15:06.266Z,15.36
2023-04-20T11:18:09.453Z,15.42
2023-04-20T11:21:13.391Z,15.16
2023-04-20T11:24:20.126Z,15.56
2023-04-20T11:27:24.761Z,14.61
2023-04-20T11:30:27.275Z,14.82
2023-04-20T11:33:31.365Z,15.08
2023-04-20T11:36:40.524Z,15.44
2023-04-20T11:39:43.115Z,16.06
2023-04-20T11:42:46.331Z,16.30
2023-04-20T11:45:49.285Z,16.23
2023-04-20T11:48:51.848Z,16.06
2023-04-20T11:51:56.159Z,15.77
2023-04-20T11:54:58.701Z,15.78
2023-04-20T11:58:01.222Z,16.31
2023-04-20T12:01:05.373Z,17.37
2023-04-20T12:04:08.643Z,17.37
2023-04-20T12:07:12.764Z,17.85
2023-04-20T12:10:15.234Z,16.94
2023-04-20T12:13:17.812Z,16.96
2023-04-20T12:16:20.344Z,17.83
2023-04-20T12:19:23.296Z,17.72
2023-04-20T12:22:27.464Z,17.62
2023-04-20T12:25:30.058Z,17.96
2023-04-20T12:28:33.107Z,17.86
2023-04-20T12:31:36.373Z,17.56
2023-04-20T12:34:39.134Z,16.53
2023-04-20T12:37:43.029Z,17.11
2023-04-20T12:40:45.622Z,17.56
2023-04-20T12:43:48.121Z,18.19
2023-04-20T12:46:50.752Z,18.37
2023-04-20T12:49:54.103Z,18.26
2023-04-20T12:52:58.512Z,17.95
2023-04-20T12:56:01.614Z,18.32
2023-04-20T12:59:04.439Z,17.69
2023-04-20T13:02:07.381Z,17.83
2023-04-20T13:05:10.974Z,18.07
2023-04-20T13:08:14.865Z,18.18
2023-04-20T13:11:18.010Z,18.02
2023-04-20T13:14:20.795Z,17.49
2023-04-20T13:17:25.884Z,17.13
2023-04-20T13:20:29.820Z,17.13
2023-04-20T13:23:33.763Z,17.57
2023-04-20T13:26:36.697Z,17.98
2023-04-20T13:29:40.042Z,17.67
2023-04-20T13:32:43.000Z,18.19
2023-04-20T13:35:45.560Z,18.51
2023-04-20T13:38:49.893Z,18.64
2023-04-20T13:41:52.396Z,18.99
2023-04-20T13:44:54.957Z,18.55
2023-04-20T13:47:58.166Z,19.09
2023-04-20T13:51:00.733Z,18.55
2023-04-20T13:54:04.706Z,17.68
2023-04-20T13:57:07.214Z,17.10
2023-04-20T14:00:11.007Z,16.61
2023-04-20T14:03:14.285Z,16.97
2023-04-20T14:06:16.960Z,16.89
2023-04-20T14:09:21.376Z,16.71
2023-04-20T14:12:24.175Z,16.69
2023-04-20T14:15:27.228Z,16.66
2023-04-20T14:18:29.711Z,16.47
2023-04-20T14:21:32.860Z,16.45
2023-04-20T14:24:36.689Z,16.47
2023-04-20T14:27:39.203Z,16.50
2023-04-20T14:30:41.921Z,16.60
2023-04-20T14:33:44.823Z,16.93
2023-04-20T14:36:47.341Z,17.35
2023-04-20T14:39:51.258Z,17.63
2023-04-20T14:42:54.040Z,17.33
2023-04-20T14:45:58.684Z,16.93
2023-04-20T14:49:01.373Z,16.80
2023-04-20T14:52:04.248Z,16.87
2023-04-20T14:55:09.254Z,17.39
2023-04-20T14:58:11.823Z,17.40
2023-04-20T15:01:14.757Z,16.99
2023-04-20T15:04:17.567Z,16.91
2023-04-20T15:07:20.360Z,16.99
2023-04-20T15:10:24.542Z,17.15
2023-04-20T15:13:27.194Z,17.26
2023-04-20T15:16:29.877Z,17.07
2023-04-20T15:19:32.477Z,16.99
2023-04-20T15:22:35.216Z,16.93
2023-04-20T15:25:39.192Z,17.03
2023-04-20T15:28:41.760Z,17.17
2023-04-20T15:31:45.571Z,17.15
2023-04-20T15:34:48.177Z,17.15
2023-04-20T15:37:50.750Z,17.35
2023-04-20T15:40:55.420Z,17.64
2023-04-20T15:43:57.931Z,17.78
2023-04-20T15:47:01.739Z,17.70
2023-04-20T15:50:04.510Z,17.54
2023-04-20T15:53:07.338Z,17.52
2023-04-20T15:56:12.013Z,17.42
2023-04-20T15:59:14.528Z,17.44
2023-04-20T16:02:17.349Z,17.40
2023-04-20T16:05:19.935Z,17.36
2023-04-20T16:08:22.493Z,17.20
2023-04-20T16:11:26.390Z,17.15
2023-04-20T16:14:29.013Z,17.26
2023-04-20T16:17:31.624Z,17.34
2023-04-20T16:20:34.170Z,17.09
2023-04-20T16:23:36.695Z,17.00
2023-04-20T16:26:41.309Z,16.96
2023-04-20T16:29:43.874Z,16.98
2023-04-20T16:32:46.654Z,16.97
2023-04-20T16:35:49.215Z,16.90
2023-04-20T16:38:51.676Z,16.94
2023-04-20T16:41:56.928Z,16.98
2023-04-20T16:44:59.514Z,16.99
2023-04-20T16:48:02.412Z,16.89
2023-04-20T16:51:05.202Z,16.87
2023-04-20T16:54:08.094Z,16.75
2023-04-20T16:57:11.910Z,16.64
2023-04-20T17:00:15.569Z,16.57
2023-04-20T17:03:18.240Z,16.47
2023-04-20T17:06:21.239Z,16.43
2023-04-20T17:09:24.105Z,16.35
2023-04-20T17:12:27.933Z,16.22
2023-04-20T17:15:30.446Z,16.17
2023-04-20T17:18:34.262Z,16.13
2023-04-20T17:21:36.804Z,16.14
2023-04-20T17:24:39.310Z,16.09
2023-04-20T17:27:43.283Z,16.14
2023-04-20T17:30:45.960Z,16.21
2023-04-20T17:33:48.509Z,16.23
2023-04-20T17:36:50.961Z,16.18
2023-04-20T17:39:53.492Z,16.11
2023-04-20T17:42:57.303Z,16.02
2023-04-20T17:46:00.766Z,15.79
2023-04-20T17:49:03.299Z,15.54
2023-04-20T17:52:06.269Z,15.30
2023-04-20T17:55:09.552Z,15.17
2023-04-20T17:58:13.832Z,14.97
2023-04-20T18:01:16.629Z,14.72
2023-04-20T18:04:19.442Z,14.44
2023-04-20T18:07:22.194Z,14.23
2023-04-20T18:10:24.696Z,14.03
2023-04-20T18:13:28.860Z,13.84
2023-04-20T18:16:31.350Z,13.62
2023-04-20T18:19:33.820Z,13.49
2023-04-20T18:22:36.649Z,13.52
2023-04-20T18:25:39.206Z,13.42
2023-04-20T18:28:43.073Z,13.27
2023-04-20T18:31:46.480Z,13.26
2023-04-20T18:34:49.122Z,13.16
2023-04-20T18:37:53.617Z,13.07
2023-04-20T18:40:56.210Z,13.02
2023-04-20T18:44:01.285Z,12.95
2023-04-20T18:47:03.897Z,12.79
2023-04-20T18:50:07.599Z,12.63
2023-04-20T18:53:10.154Z,12.36
2023-04-20T18:56:12.709Z,12.03
2023-04-20T18:59:16.517Z,11.82
2023-04-20T19:02:20.242Z,11.44
2023-04-20T19:05:23.327Z,11.13
2023-04-20T19:08:26.207Z,11.04
2023-04-20T19:11:28.950Z,11.03
2023-04-20T19:14:32.752Z,11.01
2023-04-20T19:17:36.047Z,10.88
2023-04-20T19:20:38.853Z,10.81
2023-04-20T19:23:41.761Z,10.88
2023-04-20T19:26:44.302Z,11.04
2023-04-20T19:29:48.131Z,11.14
2023-04-20T19:32:50.610Z,11.18
2023-04-20T19:35:53.568Z,11.05
2023-04-20T19:38:56.303Z,10.85
2023-04-20T19:41:58.821Z,10.75
2023-04-20T19:45:03.714Z,10.85
2023-04-20T19:48:06.719Z,10.93
2023-04-20T19:51:10.461Z,10.93
2023-04-20T19:54:16.528Z,10.93
2023-04-20T19:57:19.044Z,10.91
2023-04-20T20:00:22.987Z,10.86
2023-04-20T20:03:27.347Z,10.76
2023-04-20T20:06:30.105Z,10.64
2023-04-20T20:09:32.585Z,10.56
2023-04-20T20:31:08.964Z,9.63
